Time;durP1;ratioP1;P1;durP2;ratioP2;P2;SDS_P1;SDS_P2;PMS_P1;PMS_P2;Temp;Humidity;BMP_temperature;BMP_pressure;BME280_temperature;BME280_humidity;BME280_pressure;Samples;Min_cycle;Max_cycle;Signal;HPM_P1;HPM_P2
2023/12/05 00:01:32;;;;;;;3.30;2.97;;;12.40;57.00;;;;;;5042751;28;20444;-72
2023/12/05 00:03:59;;;;;;;3.57;3.27;;;12.40;57.10;;;;;;5032305;28;20791;-73
2023/12/05 00:06:29;;;;;;;3.43;3.10;;;12.40;57.20;;;;;;5032205;28;20478;-72
2023/12/05 00:08:57;;;;;;;4.10;3.53;;;12.40;57.20;;;;;;5031885;28;20467;-73
2023/12/05 00:11:25;;;;;;;3.57;3.27;;;12.40;57.20;;;;;;5031924;28;20478;-73
2023/12/05 00:13:53;;;;;;;3.23;2.93;;;12.40;57.10;;;;;;5032118;28;20536;-73
2023/12/05 00:16:21;;;;;;;3.20;3.00;;;12.40;57.20;;;;;;5032240;28;20442;-72
2023/12/05 00:18:49;;;;;;;3.03;2.83;;;12.40;57.20;;;;;;5035544;28;20463;-73
2023/12/05 00:21:17;;;;;;;3.63;3.23;;;12.40;57.20;;;;;;5051924;28;20507;-73
2023/12/05 00:23:47;;;;;;;3.13;2.93;;;12.30;57.20;;;;;;5051984;28;20447;-73
2023/12/05 00:26:15;;;;;;;3.50;3.20;;;12.30;57.70;;;;;;5051894;28;20442;-73
2023/12/05 00:28:44;;;;;;;4.50;2.87;;;12.30;57.20;;;;;;5052421;28;20470;-73
2023/12/05 00:31:12;;;;;;;3.60;3.20;;;12.40;57.20;;;;;;5055667;28;20473;-72
2023/12/05 00:33:40;;;;;;;3.20;2.90;;;12.40;57.10;;;;;;5055869;28;20481;-73
2023/12/05 00:36:09;;;;;;;4.07;3.67;;;12.30;57.10;;;;;;5055697;28;20438;-72
2023/12/05 00:38:37;;;;;;;3.73;3.43;;;12.30;57.10;;;;;;5055588;28;20502;-73
2023/12/05 00:41:07;;;;;;;3.20;3.00;;;12.30;57.10;;;;;;5050734;28;20527;-73
2023/12/05 00:43:36;;;;;;;3.60;3.40;;;12.30;57.10;;;;;;5035729;28;20529;-73
2023/12/05 00:46:04;;;;;;;3.50;3.23;;;12.30;57.20;;;;;;5035292;28;20491;-73
2023/12/05 00:48:32;;;;;;;4.00;3.70;;;12.30;57.20;;;;;;5035490;28;20573;-74
2023/12/05 00:51:01;;;;;;;5.27;3.27;;;12.30;57.20;;;;;;5035333;28;20440;-73
2023/12/05 00:53:29;;;;;;;3.23;2.93;;;12.30;57.10;;;;;;5035235;28;20482;-74
2023/12/05 00:55:57;;;;;;;4.40;3.90;;;12.30;57.10;;;;;;5035190;28;20478;-73
2023/12/05 00:58:27;;;;;;;3.07;2.87;;;12.30;57.20;;;;;;5035266;28;20554;-72
2023/12/05 01:00:56;;;;;;;5.13;3.10;;;12.30;57.10;;;;;;5035208;28;20443;-72
2023/12/05 01:03:24;;;;;;;7.13;2.80;;;12.30;57.20;;;;;;5035074;28;20479;-72
2023/12/05 01:05:52;;;;;;;3.40;3.20;;;12.30;57.30;;;;;;5035048;28;20448;-72
2023/12/05 01:08:20;;;;;;;3.80;3.50;;;12.30;57.20;;;;;;5035002;28;20482;-72
2023/12/05 01:10:48;;;;;;;3.50;3.20;;;12.30;57.30;;;;;;5034773;28;20517;-72
2023/12/05 01:13:16;;;;;;;3.60;3.30;;;12.30;57.30;;;;;;5035114;28;20440;-72
2023/12/05 01:15:46;;;;;;;3.57;3.10;;;12.30;57.20;;;;;;5043015;28;20474;-72
2023/12/05 01:18:13;;;;;;;3.90;3.13;;;12.30;57.30;;;;;;5054496;28;20486;-72
2023/12/05 01:20:42;;;;;;;3.77;3.13;;;12.30;57.20;;;;;;5054696;28;20941;-72
2023/12/05 01:23:10;;;;;;;3.57;2.90;;;12.30;57.30;;;;;;5054572;28;20534;-74
2023/12/05 01:25:38;;;;;;;6.60;3.50;;;12.30;57.30;;;;;;5055037;28;20517;-74
2023/12/05 01:28:06;;;;;;;3.50;3.20;;;12.30;57.70;;;;;;5054825;28;20895;-73
2023/12/05 01:30:34;;;;;;;3.50;3.20;;;12.20;57.20;;;;;;5054792;28;20442;-73
2023/12/05 01:33:03;;;;;;;4.07;3.57;;;12.30;57.40;;;;;;5054966;28;20439;-73
2023/12/05 01:35:31;;;;;;;3.67;3.37;;;12.20;57.20;;;;;;5061023;28;20461;-73
2023/12/05 01:38:00;;;;;;;3.40;3.10;;;12.30;57.20;;;;;;5070149;28;20521;-73
2023/12/05 01:40:27;;;;;;;3.93;3.37;;;12.20;57.10;;;;;;5068194;28;20469;-73
2023/12/05 01:42:56;;;;;;;3.57;3.27;;;12.20;57.20;;;;;;5054894;28;20510;-73
2023/12/05 01:45:23;;;;;;;4.47;3.30;;;12.20;57.20;;;;;;5054240;28;20474;-73
2023/12/05 01:47:52;;;;;;;3.10;2.90;;;12.20;57.20;;;;;;5045375;28;20482;-73
2023/12/05 01:50:22;;;;;;;3.63;3.43;;;12.20;57.20;;;;;;5056420;28;20450;-73
2023/12/05 01:52:52;;;;;;;3.53;3.23;;;12.20;57.20;;;;;;5044208;28;20447;-73
2023/12/05 01:55:21;;;;;;;3.57;3.27;;;12.20;57.10;;;;;;5052256;28;20869;-74
2023/12/05 01:57:49;;;;;;;3.50;3.20;;;12.20;57.10;;;;;;5053998;28;20470;-74
2023/12/05 02:00:18;;;;;;;3.90;3.50;;;12.20;57.20;;;;;;5052085;28;20455;-73
2023/12/05 02:02:46;;;;;;;3.90;3.57;;;12.20;57.10;;;;;;5054145;28;20442;-73
2023/12/05 02:05:14;;;;;;;3.90;3.50;;;12.20;57.20;;;;;;5053497;28;20542;-73
2023/12/05 02:07:44;;;;;;;3.50;3.30;;;12.20;57.20;;;;;;5051773;28;20478;-73
2023/12/05 02:10:12;;;;;;;3.67;3.37;;;12.20;57.30;;;;;;5051563;28;20446;-74
2023/12/05 02:12:39;;;;;;;4.50;3.40;;;12.20;57.10;;;;;;5040201;28;20435;-73
2023/12/05 02:15:08;;;;;;;3.80;3.50;;;12.20;57.30;;;;;;5042178;28;20434;-74
2023/12/05 02:17:39;;;;;;;3.40;3.10;;;12.20;57.20;;;;;;5039265;28;20442;-73
2023/12/05 02:20:11;;;;;;;3.40;3.10;;;12.20;57.00;;;;;;5053427;28;20453;-73
2023/12/05 02:23:08;;;;;;;3.30;3.00;;;12.20;57.30;;;;;;5044783;28;20501;-74
2023/12/05 02:25:44;;;;;;;5.30;3.10;;;12.20;57.40;;;;;;5045511;28;20524;-73
2023/12/05 02:28:13;;;;;;;3.60;3.30;;;12.20;57.00;;;;;;5045143;28;20554;-73
2023/12/05 02:30:41;;;;;;;3.60;3.30;;;12.20;57.30;;;;;;5053519;28;20445;-74
2023/12/05 02:33:09;;;;;;;3.97;2.93;;;12.10;57.30;;;;;;5044992;28;20465;-73
2023/12/05 02:35:38;;;;;;;4.07;3.50;;;12.20;57.30;;;;;;5051623;28;20955;-73
2023/12/05 02:38:10;;;;;;;7.53;3.03;;;12.10;57.10;;;;;;5052038;28;20461;-74
2023/12/05 02:40:40;;;;;;;4.30;3.63;;;12.20;57.30;;;;;;5052744;28;20446;-73
2023/12/05 02:43:12;;;;;;;3.60;3.30;;;12.10;57.40;;;;;;5045948;28;20431;-73
2023/12/05 02:45:40;;;;;;;3.50;3.20;;;12.10;57.20;;;;;;5033969;28;20428;-72
2023/12/05 02:48:09;;;;;;;4.03;3.50;;;12.10;57.20;;;;;;5053089;28;20485;-73
2023/12/05 02:50:37;;;;;;;4.07;3.67;;;12.10;57.20;;;;;;5052959;28;20434;-73
2023/12/05 02:53:05;;;;;;;3.20;2.93;;;12.20;57.40;;;;;;5051421;28;20447;-73
2023/12/05 02:55:33;;;;;;;3.57;3.27;;;12.20;57.30;;;;;;5052870;28;20488;-73
2023/12/05 02:58:01;;;;;;;4.20;3.80;;;12.10;57.30;;;;;;5037236;28;20525;-73
2023/12/05 03:00:30;;;;;;;3.87;3.43;;;12.10;57.30;;;;;;5051179;28;20455;-73
2023/12/05 03:02:58;;;;;;;3.80;3.50;;;12.20;57.40;;;;;;5052813;28;20508;-73
2023/12/05 03:05:26;;;;;;;4.80;3.80;;;12.20;57.30;;;;;;5053207;28;20454;-73
2023/12/05 03:07:54;;;;;;;3.90;3.60;;;12.10;57.30;;;;;;5052479;28;20478;-73
2023/12/05 03:10:22;;;;;;;4.10;3.70;;;12.10;57.30;;;;;;5052574;28;20527;-73
2023/12/05 03:12:50;;;;;;;3.70;3.40;;;12.10;57.00;;;;;;5052576;28;20435;-73
2023/12/05 03:15:17;;;;;;;3.53;3.23;;;12.10;57.20;;;;;;5050195;28;20439;-73
2023/12/05 03:17:47;;;;;;;4.13;3.73;;;12.10;57.30;;;;;;5050299;28;20465;-73
2023/12/05 03:20:15;;;;;;;3.70;3.40;;;12.10;57.40;;;;;;5035897;28;20463;-73
2023/12/05 03:22:43;;;;;;;4.10;3.70;;;12.10;57.20;;;;;;5052159;28;20443;-74
2023/12/05 03:25:11;;;;;;;3.47;3.17;;;12.10;57.40;;;;;;5052127;28;20433;-73
2023/12/05 03:27:39;;;;;;;3.47;3.17;;;12.10;57.40;;;;;;5052468;28;20454;-73
2023/12/05 03:30:08;;;;;;;3.47;3.17;;;12.10;57.40;;;;;;5051703;28;20450;-73
2023/12/05 03:32:36;;;;;;;3.80;3.50;;;12.10;57.40;;;;;;5052102;28;20482;-74
2023/12/05 03:35:06;;;;;;;4.10;3.63;;;12.10;57.50;;;;;;5052161;28;20512;-73
2023/12/05 03:37:34;;;;;;;3.83;3.53;;;12.10;57.40;;;;;;5032481;28;20522;-73
2023/12/05 03:40:01;;;;;;;3.63;3.33;;;12.10;57.50;;;;;;5050150;28;20443;-73
2023/12/05 03:42:29;;;;;;;3.80;3.37;;;12.10;57.40;;;;;;5045224;28;20513;-73
2023/12/05 03:44:57;;;;;;;3.70;3.40;;;12.10;57.30;;;;;;5047450;28;20568;-73
2023/12/05 03:47:26;;;;;;;3.37;3.10;;;12.10;57.30;;;;;;5046221;28;20443;-74
2023/12/05 03:49:54;;;;;;;3.97;3.60;;;12.10;57.50;;;;;;5045014;28;20477;-73
2023/12/05 03:52:23;;;;;;;3.73;3.43;;;12.10;57.50;;;;;;5052054;28;20497;-74
2023/12/05 03:54:51;;;;;;;3.77;3.40;;;12.10;57.50;;;;;;5052104;28;20549;-73
2023/12/05 03:57:19;;;;;;;4.60;3.70;;;12.10;57.50;;;;;;5043408;28;20496;-72
2023/12/05 03:59:48;;;;;;;4.30;3.87;;;12.10;57.40;;;;;;5051794;28;20443;-73
2023/12/05 04:02:16;;;;;;;3.80;3.50;;;12.10;57.50;;;;;;5050513;28;20455;-73
2023/12/05 04:04:44;;;;;;;3.10;2.90;;;12.10;57.60;;;;;;5048094;28;20477;-73
2023/12/05 04:07:12;;;;;;;4.00;3.50;;;12.10;57.40;;;;;;5055971;28;20447;-73
2023/12/05 04:09:42;;;;;;;4.30;3.90;;;12.10;57.40;;;;;;5054366;28;20782;-74
2023/12/05 04:12:11;;;;;;;3.80;3.50;;;12.10;57.40;;;;;;5051990;28;20438;-73
2023/12/05 04:14:39;;;;;;;3.93;3.53;;;12.10;57.50;;;;;;5055731;28;20450;-73
2023/12/05 04:17:07;;;;;;;3.70;3.40;;;12.10;57.60;;;;;;5058072;28;20486;-73
2023/12/05 04:19:35;;;;;;;4.00;3.60;;;12.10;57.50;;;;;;5055433;28;20484;-72
2023/12/05 04:22:04;;;;;;;3.57;3.13;;;12.10;57.50;;;;;;5050976;28;20486;-72
2023/12/05 04:24:31;;;;;;;4.20;3.70;;;12.10;57.60;;;;;;5055250;28;20524;-72
2023/12/05 04:27:01;;;;;;;3.83;3.50;;;12.10;57.60;;;;;;5048261;28;20451;-73
2023/12/05 04:29:29;;;;;;;3.77;3.47;;;12.10;57.50;;;;;;5043283;28;20478;-73
2023/12/05 04:31:59;;;;;;;3.80;3.50;;;12.10;57.60;;;;;;5036658;28;20471;-73
2023/12/05 04:34:27;;;;;;;3.80;3.50;;;12.10;57.70;;;;;;5051950;28;20442;-73
2023/12/05 04:36:56;;;;;;;3.93;3.60;;;12.00;57.60;;;;;;5057304;28;20442;-73
2023/12/05 04:39:24;;;;;;;3.60;3.30;;;12.00;57.50;;;;;;5060607;28;20493;-73
2023/12/05 04:41:52;;;;;;;3.77;3.40;;;12.00;57.50;;;;;;5055889;28;20450;-73
2023/12/05 04:44:22;;;;;;;4.13;3.73;;;12.10;57.50;;;;;;5041168;28;20556;-73
2023/12/05 04:46:50;;;;;;;3.80;3.50;;;12.00;57.40;;;;;;5057129;28;20430;-73
2023/12/05 04:49:17;;;;;;;3.37;3.07;;;12.00;57.50;;;;;;5050466;28;20533;-73
2023/12/05 04:51:46;;;;;;;4.63;4.20;;;12.00;57.50;;;;;;5060628;28;20500;-73
2023/12/05 04:54:14;;;;;;;4.27;3.60;;;12.00;57.40;;;;;;5056252;28;20446;-73
2023/12/05 04:56:42;;;;;;;4.33;3.80;;;12.00;57.60;;;;;;5057794;28;20450;-73
2023/12/05 04:59:10;;;;;;;4.17;3.63;;;12.00;57.60;;;;;;5057449;28;20501;-73
2023/12/05 05:01:40;;;;;;;3.90;3.57;;;12.00;57.50;;;;;;5055441;28;20466;-73
2023/12/05 05:04:08;;;;;;;3.87;3.57;;;12.00;57.40;;;;;;5055037;28;20957;-73
2023/12/05 05:06:36;;;;;;;4.37;3.97;;;12.00;57.60;;;;;;5055609;28;20446;-73
2023/12/05 05:09:04;;;;;;;3.97;3.67;;;12.00;57.40;;;;;;5054792;28;20486;-73
2023/12/05 05:11:32;;;;;;;4.40;4.00;;;12.00;57.50;;;;;;5055053;28;20537;-73
2023/12/05 05:14:00;;;;;;;4.10;3.70;;;12.00;57.60;;;;;;5054449;28;20532;-73
2023/12/05 05:16:30;;;;;;;4.07;3.60;;;12.00;57.60;;;;;;5055015;28;20445;-73
2023/12/05 05:19:00;;;;;;;5.40;3.57;;;12.00;57.60;;;;;;5037540;28;20514;-73
2023/12/05 05:21:28;;;;;;;4.83;3.90;;;12.00;57.60;;;;;;5034209;28;20481;-73
2023/12/05 05:23:55;;;;;;;3.77;3.43;;;12.00;57.50;;;;;;5030378;28;20463;-73
2023/12/05 05:26:24;;;;;;;3.90;3.60;;;12.00;57.60;;;;;;5034615;28;20438;-72
2023/12/05 05:28:52;;;;;;;4.03;3.70;;;12.00;57.60;;;;;;5034603;28;20554;-73
2023/12/05 05:31:20;;;;;;;4.30;3.90;;;12.00;57.60;;;;;;5034704;28;20475;-73
2023/12/05 05:33:48;;;;;;;3.80;3.50;;;12.00;57.60;;;;;;5034688;28;20538;-73
2023/12/05 05:36:18;;;;;;;4.77;3.83;;;12.00;57.50;;;;;;5034225;28;20439;-72
2023/12/05 05:38:46;;;;;;;4.10;3.70;;;12.00;57.40;;;;;;5034353;28;20455;-72
2023/12/05 05:41:14;;;;;;;3.90;3.60;;;12.00;57.70;;;;;;5034527;28;20432;-73
2023/12/05 05:43:42;;;;;;;4.00;3.60;;;12.00;57.70;;;;;;5034318;28;20467;-73
2023/12/05 05:46:10;;;;;;;4.00;3.40;;;12.00;57.60;;;;;;5034790;28;20474;-72
2023/12/05 05:48:38;;;;;;;3.77;3.47;;;12.00;57.60;;;;;;5034833;28;20463;-73
2023/12/05 05:51:06;;;;;;;4.90;4.10;;;12.00;57.70;;;;;;5050733;28;20481;-73
2023/12/05 05:53:36;;;;;;;5.80;4.07;;;12.00;57.60;;;;;;5053938;28;20504;-72
2023/12/05 05:56:04;;;;;;;5.37;4.23;;;12.00;57.70;;;;;;5053921;28;20443;-72
2023/12/05 05:58:32;;;;;;;4.27;3.63;;;12.00;57.60;;;;;;5053927;28;20497;-72
2023/12/05 06:01:00;;;;;;;4.13;3.73;;;12.00;57.60;;;;;;5053386;28;20450;-72
2023/12/05 06:03:30;;;;;;;4.07;3.67;;;12.00;57.80;;;;;;5051038;28;20462;-73
2023/12/05 06:05:59;;;;;;;3.73;3.43;;;12.00;57.80;;;;;;5046728;28;20446;-72
2023/12/05 06:08:27;;;;;;;5.30;4.27;;;12.00;57.70;;;;;;5045324;28;20463;-73
2023/12/05 06:10:57;;;;;;;3.87;3.57;;;12.00;57.60;;;;;;5049477;28;20548;-73
2023/12/05 06:13:24;;;;;;;3.97;3.60;;;12.00;57.60;;;;;;5053378;28;20431;-73
2023/12/05 06:15:53;;;;;;;4.40;4.00;;;12.00;57.70;;;;;;5053363;28;20450;-72
2023/12/05 06:18:21;;;;;;;5.13;4.33;;;12.00;57.80;;;;;;5053250;28;20466;-73
2023/12/05 06:20:51;;;;;;;5.37;4.50;;;12.00;57.60;;;;;;5048822;28;20502;-73
2023/12/05 06:23:19;;;;;;;8.33;5.80;;;12.00;57.80;;;;;;5045121;28;20501;-72
2023/12/05 06:25:47;;;;;;;6.57;5.40;;;12.00;57.80;;;;;;5032267;28;20471;-72
2023/12/05 06:28:16;;;;;;;7.23;5.57;;;12.00;57.80;;;;;;5051269;28;20512;-73
2023/12/05 06:30:44;;;;;;;8.13;6.00;;;12.00;57.70;;;;;;5041404;28;20561;-72
2023/12/05 06:33:12;;;;;;;9.57;6.50;;;12.00;57.80;;;;;;5033022;28;20443;-72
2023/12/05 06:35:41;;;;;;;10.53;7.07;;;12.00;57.80;;;;;;5045213;28;20457;-72
2023/12/05 06:38:09;;;;;;;10.20;6.73;;;12.00;57.80;;;;;;5053001;28;20467;-72
2023/12/05 06:40:37;;;;;;;10.50;7.20;;;12.00;57.80;;;;;;5048365;28;20526;-72
2023/12/05 06:43:05;;;;;;;9.33;6.50;;;12.00;57.90;;;;;;5051519;28;20446;-73
2023/12/05 06:45:35;;;;;;;10.43;7.23;;;12.00;57.90;;;;;;5043197;28;20438;-72
2023/12/05 06:48:04;;;;;;;12.37;8.10;;;12.00;57.80;;;;;;5052209;28;20489;-73
2023/12/05 06:50:32;;;;;;;9.87;7.03;;;12.00;57.90;;;;;;5048647;28;20545;-73
2023/12/05 06:53:00;;;;;;;11.57;7.80;;;12.00;58.00;;;;;;5047492;28;20430;-73
2023/12/05 06:55:28;;;;;;;9.83;7.40;;;12.00;57.90;;;;;;5050850;28;20463;-73
2023/12/05 06:57:56;;;;;;;12.97;8.00;;;12.00;57.90;;;;;;5052496;28;20508;-73
2023/12/05 07:00:24;;;;;;;11.33;7.60;;;12.00;57.90;;;;;;5047409;28;20431;-73
2023/12/05 07:02:54;;;;;;;11.40;7.67;;;12.00;58.50;;;;;;5046255;28;20552;-73
2023/12/05 07:05:22;;;;;;;11.10;7.67;;;12.00;57.90;;;;;;5052976;28;20461;-74
2023/12/05 07:07:50;;;;;;;11.03;7.93;;;12.00;57.90;;;;;;5052581;28;20474;-74
2023/12/05 07:10:18;;;;;;;11.63;7.43;;;12.00;57.90;;;;;;5061907;22;20518;-76
2023/12/05 07:12:46;;;;;;;10.63;7.33;;;12.00;57.80;;;;;;5031533;28;20462;-76
2023/12/05 07:15:15;;;;;;;10.10;7.53;;;12.00;58.00;;;;;;5035014;28;20464;-75
2023/12/05 07:17:43;;;;;;;12.50;8.00;;;12.00;57.90;;;;;;5027038;28;20435;-75
2023/12/05 07:20:13;;;;;;;12.20;7.87;;;12.00;58.00;;;;;;5025442;28;20463;-76
2023/12/05 07:22:41;;;;;;;11.33;7.10;;;12.00;57.90;;;;;;5009793;28;20474;-75
2023/12/05 07:25:09;;;;;;;10.90;7.33;;;12.00;57.80;;;;;;5012701;28;20547;-76
2023/12/05 07:27:37;;;;;;;13.10;8.47;;;12.00;58.00;;;;;;5008555;28;20432;-75
2023/12/05 07:30:07;;;;;;;10.80;7.70;;;12.00;57.90;;;;;;5006911;28;20472;-76
2023/12/05 07:32:35;;;;;;;10.13;7.27;;;12.00;58.00;;;;;;5001832;28;20460;-77
2023/12/05 07:35:03;;;;;;;11.60;7.67;;;12.00;57.90;;;;;;5006853;28;20491;-76
2023/12/05 07:37:32;;;;;;;10.10;7.20;;;12.00;57.70;;;;;;5008638;28;20449;-74
2023/12/05 07:40:01;;;;;;;10.47;7.47;;;12.00;57.70;;;;;;5025979;28;20556;-76
2023/12/05 07:42:28;;;;;;;11.50;8.10;;;12.00;57.80;;;;;;5015215;28;20481;-75
2023/12/05 07:44:56;;;;;;;11.27;7.73;;;12.00;57.70;;;;;;5020700;28;20444;-76
2023/12/05 07:47:24;;;;;;;13.20;7.03;;;12.00;57.60;;;;;;5016335;28;20533;-76
2023/12/05 07:49:52;;;;;;;10.87;7.13;;;12.00;57.60;;;;;;5021866;28;20463;-77
2023/12/05 07:52:20;;;;;;;13.63;8.30;;;12.00;58.10;;;;;;5016569;28;20484;-77
2023/12/05 07:54:49;;;;;;;9.90;6.80;;;12.00;58.00;;;;;;5020164;28;20508;-77
2023/12/05 07:57:22;;;;;;;10.43;7.10;;;12.00;58.10;;;;;;5021790;28;20446;-77
2023/12/05 07:59:52;;;;;;;10.63;7.13;;;12.00;58.20;;;;;;5020678;28;20468;-77
2023/12/05 08:02:21;;;;;;;16.87;6.90;;;12.00;58.10;;;;;;5028634;28;20444;-77
2023/12/05 08:04:49;;;;;;;12.00;6.90;;;12.00;58.20;;;;;;5027979;28;20535;-78
2023/12/05 08:07:17;;;;;;;10.40;6.30;;;12.00;58.10;;;;;;5030570;28;20452;-78
2023/12/05 08:09:45;;;;;;;11.23;7.37;;;12.10;58.30;;;;;;5030530;28;20467;-78
2023/12/05 08:12:14;;;;;;;10.60;7.10;;;12.10;58.40;;;;;;5023274;28;20503;-78
2023/12/05 08:14:42;;;;;;;10.63;6.77;;;12.10;58.40;;;;;;5010106;28;20444;-78
2023/12/05 08:17:10;;;;;;;9.40;6.80;;;12.10;58.40;;;;;;5017037;28;20547;-77
2023/12/05 08:19:38;;;;;;;9.57;7.03;;;12.10;58.40;;;;;;5014318;28;20756;-77
2023/12/05 08:22:06;;;;;;;15.00;6.50;;;12.10;58.40;;;;;;5017574;28;20440;-77
2023/12/05 08:24:34;;;;;;;11.70;6.73;;;12.10;58.40;;;;;;5022248;28;20500;-76
2023/12/05 08:27:02;;;;;;;11.53;7.20;;;12.10;58.60;;;;;;5016923;28;20459;-78
2023/12/05 08:29:32;;;;;;;10.03;6.80;;;12.10;58.50;;;;;;5017754;28;20564;-78
2023/12/05 08:32:00;;;;;;;10.70;6.77;;;12.10;58.40;;;;;;5030346;28;20917;-77
2023/12/05 08:34:28;;;;;;;12.30;6.80;;;12.10;58.40;;;;;;5027934;28;20468;-77
2023/12/05 08:36:56;;;;;;;8.73;6.20;;;12.10;58.40;;;;;;5017322;28;20460;-78
2023/12/05 08:39:24;;;;;;;9.50;6.90;;;12.10;58.50;;;;;;5018215;28;20456;-78
2023/12/05 08:41:52;;;;;;;10.40;6.37;;;12.10;58.40;;;;;;5022025;28;20436;-78
2023/12/05 08:44:20;;;;;;;9.37;5.93;;;12.10;58.50;;;;;;5025379;28;20440;-78
2023/12/05 08:46:49;;;;;;;8.60;6.23;;;12.10;58.60;;;;;;5019967;28;20439;-77
2023/12/05 08:49:17;;;;;;;10.33;6.60;;;12.10;58.50;;;;;;5028889;28;20495;-78
2023/12/05 08:51:46;;;;;;;10.93;6.03;;;12.10;58.60;;;;;;5015804;28;20472;-78
2023/12/05 08:54:15;;;;;;;12.63;6.67;;;12.10;58.60;;;;;;5015425;28;20459;-77
2023/12/05 08:56:43;;;;;;;11.43;6.40;;;12.10;58.60;;;;;;5014985;28;20453;-77
2023/12/05 08:59:11;;;;;;;9.50;6.30;;;12.20;58.60;;;;;;5021726;28;20467;-78
2023/12/05 09:01:39;;;;;;;9.93;6.37;;;12.20;58.60;;;;;;5012277;28;20538;-78
2023/12/05 09:04:09;;;;;;;9.97;6.70;;;12.20;58.60;;;;;;5014590;28;20483;-77
2023/12/05 09:06:37;;;;;;;16.80;6.37;;;12.20;58.70;;;;;;5016655;28;20458;-78
2023/12/05 09:09:05;;;;;;;7.87;5.90;;;12.20;58.60;;;;;;5030285;28;20464;-77
2023/12/05 09:11:33;;;;;;;11.17;7.27;;;12.20;58.70;;;;;;5022689;28;20537;-78
2023/12/05 09:14:01;;;;;;;11.07;6.50;;;12.20;58.60;;;;;;5021776;28;20810;-78
2023/12/05 09:16:30;;;;;;;8.40;6.33;;;12.20;58.60;;;;;;5015026;28;20452;-78
2023/12/05 09:18:58;;;;;;;10.90;6.70;;;12.20;58.60;;;;;;5014142;28;20491;-79
2023/12/05 09:21:28;;;;;;;8.10;5.90;;;12.20;58.60;;;;;;5012412;28;20528;-78
2023/12/05 09:23:56;;;;;;;8.43;5.70;;;12.20;58.60;;;;;;5013931;28;20444;-78
2023/12/05 09:26:24;;;;;;;9.30;6.83;;;12.20;58.70;;;;;;5015877;28;20449;-77
2023/12/05 09:28:53;;;;;;;7.70;5.50;;;12.20;58.60;;;;;;5013457;28;20453;-78
2023/12/05 09:31:21;;;;;;;9.20;6.40;;;12.20;58.40;;;;;;5001680;28;20507;-78
2023/12/05 09:33:49;;;;;;;7.77;5.60;;;12.20;58.50;;;;;;5011781;28;20468;-78
2023/12/05 09:36:17;;;;;;;7.93;5.90;;;12.20;58.60;;;;;;5001139;28;20480;-77
2023/12/05 09:38:47;;;;;;;6.73;5.50;;;12.20;58.60;;;;;;5015013;28;20439;-77
2023/12/05 09:41:15;;;;;;;8.50;6.67;;;12.20;58.60;;;;;;5015817;28;20483;-77
2023/12/05 09:43:44;;;;;;;7.90;5.77;;;12.20;58.50;;;;;;5011317;28;20445;-78
2023/12/05 09:46:12;;;;;;;6.37;5.33;;;12.20;58.60;;;;;;5011106;28;20504;-78
2023/12/05 09:48:43;;;;;;;8.50;5.57;;;12.20;58.60;;;;;;5013456;28;20523;-78
2023/12/05 09:51:12;;;;;;;8.40;5.83;;;12.20;58.60;;;;;;5016768;28;20424;-78
2023/12/05 09:53:39;;;;;;;8.83;6.20;;;12.20;58.60;;;;;;5024580;28;20544;-77
2023/12/05 09:56:10;;;;;;;12.50;6.50;;;12.20;58.50;;;;;;5018579;28;20923;-78
2023/12/05 09:58:40;;;;;;;8.83;5.37;;;12.20;58.60;;;;;;5013467;28;20528;-77
2023/12/05 10:01:08;;;;;;;9.07;6.00;;;12.20;58.40;;;;;;5012280;28;20539;-78
2023/12/05 10:03:36;;;;;;;7.03;5.70;;;12.20;58.40;;;;;;5012785;28;20523;-77
2023/12/05 10:06:05;;;;;;;7.97;5.83;;;12.20;58.60;;;;;;5013098;28;20527;-77
2023/12/05 10:08:33;;;;;;;7.10;5.63;;;12.30;58.60;;;;;;5014741;28;20444;-78
2023/12/05 10:11:02;;;;;;;8.00;5.70;;;12.30;58.50;;;;;;5027130;28;20529;-77
2023/12/05 10:13:32;;;;;;;7.50;5.67;;;12.30;58.40;;;;;;5024092;28;20567;-77
2023/12/05 10:16:00;;;;;;;6.63;5.30;;;12.30;58.50;;;;;;5013397;28;20532;-77
2023/12/05 10:18:29;;;;;;;7.30;5.87;;;12.30;58.60;;;;;;5013361;28;20447;-77
2023/12/05 10:20:57;;;;;;;10.70;5.80;;;12.30;58.40;;;;;;5013304;28;20464;-78
2023/12/05 10:23:25;;;;;;;6.87;5.30;;;12.30;58.50;;;;;;5013654;28;20487;-77
2023/12/05 10:25:54;;;;;;;7.57;5.93;;;12.30;58.50;;;;;;5013948;28;20436;-76
2023/12/05 10:28:23;;;;;;;6.60;4.87;;;12.40;58.60;;;;;;5013306;28;20523;-77
2023/12/05 10:30:52;;;;;;;7.53;5.50;;;12.40;58.60;;;;;;5013061;28;20461;-77
2023/12/05 10:33:21;;;;;;;7.47;5.80;;;12.40;58.60;;;;;;5012828;28;20558;-78
2023/12/05 10:35:50;;;;;;;12.40;6.10;;;12.40;58.50;;;;;;5016439;28;20454;-77
2023/12/05 10:38:20;;;;;;;5.73;5.13;;;12.50;58.60;;;;;;5032332;28;20519;-77
2023/12/05 10:40:52;;;;;;;8.17;5.53;;;12.50;58.60;;;;;;5024177;28;20555;-77
2023/12/05 10:43:20;;;;;;;8.17;5.50;;;12.50;58.50;;;;;;5031910;28;20948;-77
2023/12/05 10:45:49;;;;;;;6.70;5.50;;;12.50;58.60;;;;;;5023871;28;20440;-77
2023/12/05 10:48:18;;;;;;;10.33;6.17;;;12.50;58.50;;;;;;5024083;28;20485;-77
2023/12/05 10:50:48;;;;;;;8.23;6.47;;;12.50;58.60;;;;;;5022055;28;20477;-78
2023/12/05 10:53:16;;;;;;;8.63;6.30;;;12.50;58.60;;;;;;5019952;28;20502;-77
2023/12/05 10:55:44;;;;;;;6.53;5.03;;;12.60;58.70;;;;;;5024257;28;20471;-77
2023/12/05 10:58:14;;;;;;;8.40;5.83;;;12.60;58.50;;;;;;5032799;28;20486;-77
2023/12/05 11:00:42;;;;;;;7.60;5.60;;;12.60;58.60;;;;;;5032557;28;20456;-77
2023/12/05 11:03:10;;;;;;;9.40;5.83;;;12.60;58.60;;;;;;5032821;28;20440;-77
2023/12/05 11:05:39;;;;;;;8.40;5.20;;;12.60;58.50;;;;;;5032574;28;20451;-77
2023/12/05 11:08:08;;;;;;;9.60;5.83;;;12.60;58.50;;;;;;5032353;28;20442;-77
2023/12/05 11:10:35;;;;;;;6.20;5.60;;;12.70;58.60;;;;;;5032157;28;20554;-76
2023/12/05 11:13:04;;;;;;;8.17;5.70;;;12.70;58.60;;;;;;5032019;28;20493;-77
2023/12/05 11:15:35;;;;;;;7.87;6.00;;;12.70;58.50;;;;;;5031873;28;20443;-77
2023/12/05 11:18:09;;;;;;;7.50;5.40;;;12.70;58.60;;;;;;5032420;28;20415;-77
2023/12/05 11:20:51;;;;;;;7.13;6.07;;;12.80;58.70;;;;;;5031994;28;20458;-77
2023/12/05 11:23:44;;;;;;;8.13;5.57;;;12.80;58.70;;;;;;5032026;28;20424;-78
2023/12/05 11:29:21;;;;;;;8.10;5.97;;;12.90;58.60;;;;;;5032825;28;20475;-77
2023/12/05 11:31:53;;;;;;;8.50;5.97;;;12.90;58.60;;;;;;5033023;28;20439;-77
2023/12/05 11:34:41;;;;;;;6.20;5.00;;;12.90;58.60;;;;;;5031933;28;20475;-79
2023/12/05 11:37:19;;;;;;;8.10;6.33;;;12.90;58.60;;;;;;5032699;28;20435;-79
2023/12/05 11:39:46;;;;;;;13.00;6.33;;;12.90;58.60;;;;;;5031968;28;20463;-78
2023/12/05 11:42:15;;;;;;;6.80;5.70;;;12.90;58.50;;;;;;5031694;28;20450;-79
2023/12/05 11:44:43;;;;;;;7.87;6.10;;;12.90;58.70;;;;;;5031562;28;20435;-79
2023/12/05 11:47:14;;;;;;;7.03;5.73;;;12.90;58.70;;;;;;5031495;28;20444;-78
2023/12/05 11:49:49;;;;;;;8.87;5.80;;;13.00;58.70;;;;;;5032669;28;20448;-78
2023/12/05 11:52:19;;;;;;;7.77;6.13;;;12.90;58.70;;;;;;5031709;28;20438;-78
2023/12/05 11:54:48;;;;;;;8.20;6.17;;;12.90;58.60;;;;;;5031799;28;20818;-79
2023/12/05 11:57:17;;;;;;;5.93;5.13;;;12.90;58.60;;;;;;5031755;28;20447;-78
2023/12/05 11:59:46;;;;;;;7.97;6.10;;;13.00;58.70;;;;;;5031370;28;20459;-78
2023/12/05 12:02:14;;;;;;;7.40;5.67;;;12.90;58.60;;;;;;5031598;28;20475;-78
2023/12/05 12:04:42;;;;;;;8.00;6.40;;;13.00;58.60;;;;;;5032080;28;20523;-78
2023/12/05 12:07:11;;;;;;;8.20;6.13;;;13.00;58.70;;;;;;5025449;28;20456;-78
2023/12/05 12:09:40;;;;;;;9.37;6.50;;;13.00;58.70;;;;;;5012065;28;20479;-78
2023/12/05 12:12:09;;;;;;;7.13;6.07;;;13.00;58.60;;;;;;5012642;28;20445;-78
2023/12/05 12:14:39;;;;;;;10.93;6.53;;;13.00;58.70;;;;;;5012081;28;20472;-78
2023/12/05 12:17:11;;;;;;;6.40;5.70;;;13.00;58.70;;;;;;5013021;28;20450;-76
2023/12/05 12:19:39;;;;;;;35.93;21.90;;;13.00;59.00;;;;;;5011667;28;20559;-77
2023/12/05 12:22:08;;;;;;;36.07;21.50;;;11.90;51.70;;;;;;5011920;28;20444;-77
2023/12/05 12:24:37;;;;;;;38.13;21.93;;;11.30;54.50;;;;;;5012076;28;20460;-77
2023/12/05 12:27:07;;;;;;;36.23;21.30;;;10.90;54.10;;;;;;5015757;28;20444;-77
2023/12/05 12:29:36;;;;;;;34.70;21.27;;;10.50;53.40;;;;;;5014750;28;20518;-77
2023/12/05 12:32:06;;;;;;;40.07;20.30;;;10.40;53.70;;;;;;5015849;28;20544;-77
2023/12/05 12:34:34;;;;;;;40.77;21.20;;;10.40;55.20;;;;;;5019873;28;20482;-78
2023/12/05 12:37:02;;;;;;;32.77;19.37;;;10.70;55.50;;;;;;5020699;28;20444;-78
2023/12/05 12:39:44;;;;;;;38.37;21.27;;;11.10;55.00;;;;;;5021220;28;20463;-78
2023/12/05 12:42:16;;;;;;;38.47;21.50;;;11.40;54.20;;;;;;5020880;28;20436;-79
2023/12/05 12:44:44;;;;;;;33.67;19.93;;;11.50;53.80;;;;;;5020398;28;20464;-78
2023/12/05 12:47:12;;;;;;;35.27;20.70;;;11.60;53.80;;;;;;5020959;28;20451;-78
2023/12/05 12:49:40;;;;;;;36.40;21.50;;;11.70;53.80;;;;;;5020036;28;20468;-78
2023/12/05 12:52:08;;;;;;;36.60;20.97;;;11.80;54.20;;;;;;5019295;28;20450;-78
2023/12/05 12:54:38;;;;;;;33.10;20.50;;;11.80;53.10;;;;;;5019572;28;20445;-78